Time,TemperatureF,DewpointF,PressureIn,WindDirection,WindDirectionDegrees,WindSpeedMPH,WindSpeedGustMPH,Humidity,HourlyPrecipIn,Conditions,Clouds,dailyrainin,SolarRadiationWatts/m^2,SoftwareType,DateUTC
2013-05-10 00:01:00,57.1,51.7,30.01,SW,222,0.0,0.0,82,0.00,,CLR,0.08,0.00,VWS V14.01,2013-05-10 04:01:00,
2013-05-10 00:02:00,57.0,51.6,30.01,SW,222,0.0,0.0,82,0.00,,CLR,0.08,0.00,VWS V14.01,2013-05-10 04:02:00,
2013-05-10 00:04:00,57.0,51.6,30.01,SW,222,0.0,0.0,82,0.00,,CLR,0.00,0.00,VWS V14.01,2013-05-10 04:04:00,
2013-05-10 00:09:00,56.6,51.5,30.01,SW,222,0.0,0.0,83,0.00,,CLR,0.00,0.00,VWS V14.01,2013-05-10 04:09:00,
2013-05-10 00:14:00,56.6,51.8,30.01,SW,222,0.0,0.0,84,0.00,,CLR,0.00,0.00,VWS V14.01,2013-05-10 04:14:00,
2013-05-10 00:19:00,56.5,51.7,30.00,SW,222,0.0,0.0,84,0.00,,CLR,0.00,0.00,VWS V14.01,2013-05-10 04:19:00,
2013-05-10 00:24:00,56.0,51.2,30.00,SW,222,0.0,0.0,84,0.00,,CLR,0.00,0.00,VWS V14.01,2013-05-10 04:24:00,
2013-05-10 00:29:00,55.9,51.1,30.00,SW,222,0.0,0.0,84,0.00,,CLR,0.00,0.00,VWS V14.01,2013-05-10 04:29:00,
2013-05-10 00:35:00,55.7,51.0,30.01,SW,222,0.0,0.0,84,0.00,,CLR,0.00,0.00,VWS V14.01,2013-05-10 04:35:00,
2013-05-10 00:40:00,55.5,51.4,30.01,SW,222,0.0,0.0,86,0.00,,CLR,0.00,0.00,VWS V14.01,2013-05-10 04:40:00,
2013-05-10 00:45:00,55.5,51.4,30.01,SW,222,0.0,0.0,86,0.00,,CLR,0.00,0.00,VWS V14.01,2013-05-10 04:45:00,
2013-05-10 00:50:00,55.3,51.5,30.01,SW,222,0.0,0.0,87,0.00,,CLR,0.00,0.00,VWS V14.01,2013-05-10 04:50:00,
2013-05-10 00:55:00,55.3,51.5,30.01,SW,222,0.0,0.0,87,0.00,,CLR,0.00,0.00,VWS V14.01,2013-05-10 04:55:00,
2013-05-10 01:00:00,55.0,51.2,30.01,SW,222,0.0,0.0,87,0.00,,CLR,0.00,0.00,VWS V14.01,2013-05-10 05:00:00,
2013-05-10 01:05:00,55.0,51.5,30.01,SW,222,0.0,0.0,88,0.00,,CLR,0.00,0.00,VWS V14.01,2013-05-10 05:05:00,
2013-05-10 01:10:00,55.0,51.5,30.01,SW,222,0.0,0.0,88,0.00,,CLR,0.00,0.00,VWS V14.01,2013-05-10 05:10:00,
2013-05-10 01:15:00,54.9,51.4,30.01,SW,222,0.0,0.0,88,0.00,,CLR,0.00,0.00,VWS V14.01,2013-05-10 05:15:00,
2013-05-10 01:20:00,54.9,51.4,30.01,SW,222,0.0,0.0,88,0.00,,CLR,0.00,0.00,VWS V14.01,2013-05-10 05:20:00,
2013-05-10 01:26:00,54.7,51.2,30.01,SW,222,0.0,0.0,88,0.00,,CLR,0.00,0.00,VWS V14.01,2013-05-10 05:26:00,
2013-05-10 01:31:00,54.7,51.2,30.01,SW,222,0.0,0.0,88,0.00,,CLR,0.00,0.00,VWS V14.01,2013-05-10 05:31:00,
2013-05-10 01:36:00,54.7,51.5,30.01,SW,222,0.0,0.0,89,0.00,,CLR,0.00,0.00,VWS V14.01,2013-05-10 05:36:00,
2013-05-10 01:41:00,54.6,51.4,30.01,SW,222,0.0,0.0,89,0.00,,CLR,0.00,0.00,VWS V14.01,2013-05-10 05:41:00,
2013-05-10 01:46:00,54.4,51.2,30.01,SW,222,0.0,0.0,89,0.00,,CLR,0.00,0.00,VWS V14.01,2013-05-10 05:46:00,
2013-05-10 01:51:00,54.4,51.2,30.01,SW,222,0.0,0.0,89,0.00,,CLR,0.00,0.00,VWS V14.01,2013-05-10 05:51:00,
2013-05-10 01:56:00,54.4,51.2,30.01,SW,222,0.0,0.0,89,0.00,,CLR,0.00,0.00,VWS V14.01,2013-05-10 05:56:00,
2013-05-10 02:01:00,54.3,51.1,30.01,SW,222,0.0,0.0,89,0.00,,CLR,0.00,0.00,VWS V14.01,2013-05-10 06:01:00,
2013-05-10 02:06:00,54.1,50.9,30.01,SW,222,0.0,0.0,89,0.00,,CLR,0.00,0.00,VWS V14.01,2013-05-10 06:06:00,
2013-05-10 02:11:00,54.1,50.9,30.01,SW,222,0.0,3.0,89,0.00,,CLR,0.00,0.00,VWS V14.01,2013-05-10 06:11:00,
2013-05-10 02:16:00,54.0,50.8,30.01,SW,222,0.0,0.0,89,0.00,,CLR,0.00,0.00,VWS V14.01,2013-05-10 06:16:00,
2013-05-10 02:21:00,54.0,51.1,30.01,SW,222,0.0,0.0,90,0.00,,CLR,0.00,0.00,VWS V14.01,2013-05-10 06:21:00,
2013-05-10 02:26:00,53.8,50.9,30.01,SW,222,0.0,0.0,90,0.00,,CLR,0.00,0.00,VWS V14.01,2013-05-10 06:26:00,
2013-05-10 02:32:00,53.7,50.8,30.00,SW,222,0.0,0.0,90,0.00,,CLR,0.00,0.00,VWS V14.01,2013-05-10 06:32:00,
2013-05-10 02:37:00,53.5,50.6,30.00,SW,222,0.0,0.0,90,0.00,,CLR,0.00,0.00,VWS V14.01,2013-05-10 06:37:00,
2013-05-10 02:42:00,53.4,50.5,30.00,SW,222,0.0,0.0,90,0.00,,CLR,0.00,0.00,VWS V14.01,2013-05-10 06:42:00,
2013-05-10 02:47:00,53.2,50.7,30.01,SW,222,0.0,0.0,91,0.00,,CLR,0.00,0.00,VWS V14.01,2013-05-10 06:47:00,
2013-05-10 02:52:00,53.1,50.5,30.01,SW,222,0.0,0.0,91,0.00,,CLR,0.00,0.00,VWS V14.01,2013-05-10 06:52:00,
2013-05-10 02:57:00,53.1,50.5,30.01,SW,222,0.0,0.0,91,0.00,,CLR,0.00,0.00,VWS V14.01,2013-05-10 06:57:00,
2013-05-10 03:02:00,52.9,50.3,30.01,SW,222,0.0,0.0,91,0.00,,CLR,0.00,0.00,VWS V14.01,2013-05-10 07:02:00,
2013-05-10 03:07:00,52.8,50.2,30.01,SW,222,0.0,0.0,91,0.00,,CLR,0.00,0.00,VWS V14.01,2013-05-10 07:07:00,
2013-05-10 03:12:00,52.6,50.3,30.01,SW,222,0.0,0.0,92,0.00,,CLR,0.00,0.00,VWS V14.01,2013-05-10 07:12:00,
2013-05-10 03:17:00,52.6,50.3,30.01,SW,222,0.0,0.0,92,0.00,,CLR,0.00,0.00,VWS V14.01,2013-05-10 07:17:00,
2013-05-10 03:22:00,52.5,50.2,30.01,SW,222,0.0,0.0,92,0.00,,CLR,0.00,0.00,VWS V14.01,2013-05-10 07:22:00,
2013-05-10 03:27:00,52.3,50.0,30.01,North,0,0.0,0.0,92,0.00,,CLR,0.00,0.00,VWS V14.01,2013-05-10 07:27:00,
2013-05-10 03:32:00,52.2,50.0,30.00,SW,222,0.0,0.0,92,0.00,,CLR,0.00,0.00,VWS V14.01,2013-05-10 07:32:00,
2013-05-10 03:38:00,52.1,49.8,30.00,SW,222,0.0,0.0,92,0.00,,CLR,0.00,0.00,VWS V14.01,2013-05-10 07:38:00,
2013-05-10 03:43:00,51.9,49.7,30.00,SW,222,0.0,0.0,92,0.00,,CLR,0.00,0.00,VWS V14.01,2013-05-10 07:43:00,
2013-05-10 03:48:00,51.9,49.9,30.00,SW,222,0.0,0.0,93,0.00,,CLR,0.00,0.00,VWS V14.01,2013-05-10 07:48:00,
2013-05-10 03:53:00,51.9,49.9,30.00,SW,222,0.0,0.0,93,0.00,,CLR,0.00,0.00,VWS V14.01,2013-05-10 07:53:00,
2013-05-10 03:58:00,51.8,49.8,30.00,SW,222,0.0,0.0,93,0.00,,CLR,0.00,0.00,VWS V14.01,2013-05-10 07:58:00,
2013-05-10 04:03:00,51.6,49.7,30.01,SW,222,0.0,0.0,93,0.00,,CLR,0.00,0.00,VWS V14.01,2013-05-10 08:03:00,
2013-05-10 04:08:00,51.5,49.5,30.01,SW,222,0.0,0.0,93,0.00,,CLR,0.00,0.00,VWS V14.01,2013-05-10 08:08:00,
2013-05-10 04:13:00,51.3,49.3,30.01,SW,222,0.0,0.0,93,0.00,,CLR,0.00,0.00,VWS V14.01,2013-05-10 08:13:00,
2013-05-10 04:18:00,51.2,49.5,30.00,SW,222,0.0,1.0,94,0.00,,CLR,0.00,0.00,VWS V14.01,2013-05-10 08:18:00,
2013-05-10 04:23:00,51.2,49.5,30.00,SW,222,0.0,0.0,94,0.00,,CLR,0.00,0.00,VWS V14.01,2013-05-10 08:23:00,
2013-05-10 04:28:00,51.3,49.9,30.00,SW,222,0.0,2.0,95,0.00,,CLR,0.00,0.00,VWS V14.01,2013-05-10 08:28:00,
2013-05-10 04:33:00,51.3,49.9,30.00,SW,222,0.0,0.0,95,0.00,,CLR,0.00,0.00,VWS V14.01,2013-05-10 08:33:00,
2013-05-10 04:38:00,51.2,49.5,30.00,SW,222,0.0,0.0,94,0.00,,CLR,0.00,0.00,VWS V14.01,2013-05-10 08:38:00,
2013-05-10 04:44:00,51.2,49.8,30.00,SW,222,0.0,0.0,95,0.00,,CLR,0.00,0.00,VWS V14.01,2013-05-10 08:44:00,
2013-05-10 04:49:00,51.2,49.8,30.00,SW,222,0.0,0.0,95,0.00,,CLR,0.00,0.00,VWS V14.01,2013-05-10 08:49:00,
2013-05-10 04:54:00,51.0,49.6,30.00,SW,222,0.0,0.0,95,0.00,,CLR,0.00,0.00,VWS V14.01,2013-05-10 08:54:00,
2013-05-10 04:59:00,51.0,49.6,30.00,SW,222,0.0,0.0,95,0.00,,CLR,0.00,0.00,VWS V14.01,2013-05-10 08:59:00,
2013-05-10 05:04:00,50.9,49.5,29.99,SW,222,0.0,0.0,95,0.00,,CLR,0.00,0.00,VWS V14.01,2013-05-10 09:04:00,
2013-05-10 05:09:00,50.7,49.3,29.99,SW,222,0.0,0.0,95,0.00,,CLR,0.00,0.00,VWS V14.01,2013-05-10 09:09:00,
2013-05-10 05:14:00,50.6,49.2,29.99,SW,222,0.0,0.0,95,0.00,,CLR,0.00,0.00,VWS V14.01,2013-05-10 09:14:00,
2013-05-10 05:19:00,50.6,49.2,30.00,SW,222,0.0,0.0,95,0.00,,CLR,0.00,0.00,VWS V14.01,2013-05-10 09:19:00,
2013-05-10 05:24:00,50.4,49.3,30.00,SW,222,0.0,0.0,96,0.00,,CLR,0.00,0.00,VWS V14.01,2013-05-10 09:24:00,
2013-05-10 05:29:00,50.3,48.9,30.00,SW,222,0.0,0.0,95,0.00,,CLR,0.00,0.00,VWS V14.01,2013-05-10 09:29:00,
2013-05-10 05:34:00,50.1,49.0,30.00,SW,222,0.0,0.0,96,0.00,,CLR,0.00,0.00,VWS V14.01,2013-05-10 09:34:00,
2013-05-10 05:39:00,50.1,49.0,30.00,SW,222,0.0,0.0,96,0.00,,CLR,0.00,0.00,VWS V14.01,2013-05-10 09:39:00,
2013-05-10 05:44:00,50.0,48.9,30.00,SW,222,0.0,0.0,96,0.00,,CLR,0.00,0.00,VWS V14.01,2013-05-10 09:44:00,
2013-05-10 05:50:00,49.8,48.7,29.99,SW,222,0.0,0.0,96,0.00,,CLR,0.00,0.00,VWS V14.01,2013-05-10 09:50:00,
2013-05-10 05:55:00,49.8,48.7,29.99,SW,222,0.0,0.0,96,0.00,,CLR,0.00,0.00,VWS V14.01,2013-05-10 09:55:00,
2013-05-10 06:00:00,49.7,48.6,29.99,SW,222,0.0,0.0,96,0.00,,CLR,0.00,0.00,VWS V14.01,2013-05-10 10:00:00,
2013-05-10 06:05:00,49.7,48.6,29.99,SW,222,0.0,0.0,96,0.00,,CLR,0.00,5.00,VWS V14.01,2013-05-10 10:05:00,
2013-05-10 06:10:00,49.7,48.6,29.99,SW,222,0.0,0.0,96,0.00,,CLR,0.00,11.00,VWS V14.01,2013-05-10 10:10:00,
2013-05-10 06:15:00,49.7,48.6,29.99,SW,222,0.0,0.0,96,0.00,,CLR,0.00,11.00,VWS V14.01,2013-05-10 10:15:00,
2013-05-10 06:20:00,49.8,49.0,30.00,SW,222,0.0,0.0,97,0.00,,CLR,0.00,11.00,VWS V14.01,2013-05-10 10:20:00,
2013-05-10 06:25:00,50.0,49.2,30.00,SW,222,0.0,0.0,97,0.00,,CLR,0.00,11.00,VWS V14.01,2013-05-10 10:25:00,
2013-05-10 06:30:00,50.1,49.3,30.00,SW,222,0.0,0.0,97,0.00,,CLR,0.00,11.00,VWS V14.01,2013-05-10 10:30:00,
2013-05-10 06:35:00,50.3,49.5,30.00,SW,222,0.0,0.0,97,0.00,,CLR,0.00,18.00,VWS V14.01,2013-05-10 10:35:00,
2013-05-10 06:40:00,50.3,49.5,30.00,SW,222,0.0,0.0,97,0.00,,CLR,0.00,26.00,VWS V14.01,2013-05-10 10:40:00,
2013-05-10 06:45:00,50.3,49.5,30.00,SW,222,0.0,0.0,97,0.00,,CLR,0.00,26.00,VWS V14.01,2013-05-10 10:45:00,
2013-05-10 06:50:00,50.4,49.6,30.00,SW,222,0.0,0.0,97,0.00,,CLR,0.00,26.00,VWS V14.01,2013-05-10 10:50:00,
2013-05-10 06:55:00,50.4,49.6,30.00,SW,222,0.0,0.0,97,0.00,,CLR,0.00,30.00,VWS V14.01,2013-05-10 10:55:00,
2013-05-10 07:00:00,50.6,49.8,30.00,SW,222,0.0,0.0,97,0.00,,CLR,0.00,37.00,VWS V14.01,2013-05-10 11:00:00,
2013-05-10 07:06:00,50.7,49.9,30.00,SW,222,0.0,0.0,97,0.00,,CLR,0.00,39.00,VWS V14.01,2013-05-10 11:06:00,
2013-05-10 07:11:00,50.9,50.1,30.00,SW,222,0.0,1.0,97,0.00,,CLR,0.00,44.00,VWS V14.01,2013-05-10 11:11:00,
2013-05-10 07:16:00,51.0,50.2,30.00,SW,222,1.0,2.0,97,0.00,,CLR,0.00,53.00,VWS V14.01,2013-05-10 11:16:00,
2013-05-10 07:21:00,51.2,50.4,30.00,SW,222,0.0,2.0,97,0.00,,CLR,0.00,67.00,VWS V14.01,2013-05-10 11:21:00,
2013-05-10 07:26:00,51.3,50.8,30.00,SW,222,0.0,0.0,98,0.00,,CLR,0.00,69.00,VWS V14.01,2013-05-10 11:26:00,
2013-05-10 07:31:00,51.5,51.0,30.00,SW,222,0.0,0.0,98,0.00,,CLR,0.00,74.00,VWS V14.01,2013-05-10 11:31:00,
2013-05-10 07:36:00,51.6,51.1,30.01,SW,222,0.0,0.0,98,0.00,,CLR,0.00,81.00,VWS V14.01,2013-05-10 11:36:00,
2013-05-10 07:41:00,51.9,51.4,30.01,SW,222,0.0,0.0,98,0.00,,CLR,0.00,86.00,VWS V14.01,2013-05-10 11:41:00,
2013-05-10 07:46:00,52.3,51.8,30.01,SW,222,0.0,1.0,98,0.00,,CLR,0.00,77.00,VWS V14.01,2013-05-10 11:46:00,
2013-05-10 07:51:00,52.5,52.0,30.00,SW,222,0.0,1.0,98,0.00,,CLR,0.00,84.00,VWS V14.01,2013-05-10 11:51:00,
2013-05-10 07:56:00,52.8,52.2,30.00,SW,222,0.0,0.0,98,0.00,,CLR,0.00,83.00,VWS V14.01,2013-05-10 11:56:00,
2013-05-10 08:01:00,52.9,52.3,30.00,SW,222,0.0,0.0,98,0.00,,CLR,0.00,88.00,VWS V14.01,2013-05-10 12:01:00,
2013-05-10 08:06:00,53.2,52.7,30.00,SW,222,0.0,0.0,98,0.00,,CLR,0.00,102.00,VWS V14.01,2013-05-10 12:06:00,
2013-05-10 08:11:00,53.4,52.8,30.00,SW,222,0.0,0.0,98,0.00,,CLR,0.00,88.00,VWS V14.01,2013-05-10 12:11:00,
2013-05-10 08:17:00,53.5,53.0,30.00,SW,222,0.0,0.0,98,0.00,,CLR,0.00,88.00,VWS V14.01,2013-05-10 12:17:00,
2013-05-10 08:22:00,54.0,53.5,30.00,SW,222,0.0,0.0,98,0.00,,CLR,0.00,127.00,VWS V14.01,2013-05-10 12:22:00,
2013-05-10 08:27:00,54.3,53.5,30.00,SW,222,0.0,0.0,97,0.00,,CLR,0.00,171.00,VWS V14.01,2013-05-10 12:27:00,
2013-05-10 08:32:00,55.0,54.5,30.00,SW,222,0.0,0.0,98,0.00,,CLR,0.00,197.00,VWS V14.01,2013-05-10 12:32:00,
2013-05-10 08:37:00,55.6,55.0,30.00,SW,222,0.0,0.0,98,0.00,,CLR,0.00,179.00,VWS V14.01,2013-05-10 12:37:00,
2013-05-10 08:42:00,55.9,55.1,30.00,SW,222,0.0,0.0,97,0.00,,CLR,0.00,190.00,VWS V14.01,2013-05-10 12:42:00,
2013-05-10 08:47:00,56.2,55.1,30.00,SW,222,0.0,0.0,96,0.00,,CLR,0.00,146.00,VWS V14.01,2013-05-10 12:47:00,
2013-05-10 08:52:00,56.5,55.4,30.00,SW,222,0.0,0.0,96,0.00,,CLR,0.00,139.00,VWS V14.01,2013-05-10 12:52:00,
2013-05-10 08:57:00,57.0,55.9,30.00,SW,222,0.0,0.0,96,0.00,,CLR,0.00,155.00,VWS V14.01,2013-05-10 12:57:00,
2013-05-10 09:02:00,57.1,55.4,30.00,SW,222,0.0,0.0,94,0.00,,CLR,0.00,172.00,VWS V14.01,2013-05-10 13:02:00,
2013-05-10 09:07:00,57.6,55.9,30.00,SW,222,0.0,0.0,94,0.00,,CLR,0.00,208.00,VWS V14.01,2013-05-10 13:07:00,
2013-05-10 09:12:00,57.9,55.9,30.00,SW,222,0.0,0.0,93,0.00,,CLR,0.00,225.00,VWS V14.01,2013-05-10 13:12:00,
2013-05-10 09:17:00,58.2,55.9,30.00,NNW,329,0.0,0.0,92,0.00,,CLR,0.00,239.00,VWS V14.01,2013-05-10 13:17:00,
2013-05-10 09:22:00,58.5,55.6,30.00,WSW,257,0.0,0.0,90,0.00,,CLR,0.00,255.00,VWS V14.01,2013-05-10 13:22:00,
2013-05-10 09:27:00,58.9,55.7,30.00,WSW,257,0.0,0.0,89,0.00,,CLR,0.00,273.00,VWS V14.01,2013-05-10 13:27:00,
2013-05-10 09:33:00,59.5,56.0,30.00,WSW,257,1.0,1.0,88,0.00,,CLR,0.00,292.00,VWS V14.01,2013-05-10 13:33:00,
2013-05-10 09:38:00,59.9,55.4,30.00,WSW,251,0.0,2.0,85,0.00,,CLR,0.00,320.00,VWS V14.01,2013-05-10 13:38:00,
2013-05-10 09:43:00,60.8,55.9,30.00,WSW,251,0.0,0.0,84,0.00,,CLR,0.00,290.00,VWS V14.01,2013-05-10 13:43:00,
2013-05-10 09:48:00,61.4,56.2,30.00,WSW,254,0.0,2.0,83,0.00,,CLR,0.00,278.00,VWS V14.01,2013-05-10 13:48:00,
2013-05-10 09:53:00,61.9,55.7,30.00,WSW,254,0.0,0.0,80,0.00,,CLR,0.00,241.00,VWS V14.01,2013-05-10 13:53:00,
2013-05-10 09:58:00,62.4,55.8,30.00,WSW,254,0.0,0.0,79,0.00,,CLR,0.00,296.00,VWS V14.01,2013-05-10 13:58:00,
2013-05-10 10:03:00,62.7,55.0,29.99,WSW,254,0.0,0.0,76,0.00,,CLR,0.00,287.00,VWS V14.01,2013-05-10 14:03:00,
2013-05-10 10:08:00,63.3,56.0,29.99,WSW,254,0.0,0.0,77,0.00,,CLR,0.00,259.00,VWS V14.01,2013-05-10 14:08:00,
2013-05-10 10:13:00,63.5,56.2,29.99,WSW,254,0.0,0.0,77,0.00,,CLR,0.00,220.00,VWS V14.01,2013-05-10 14:13:00,
2013-05-10 10:18:00,63.8,56.1,29.99,WSW,254,0.0,0.0,76,0.00,,CLR,0.00,171.00,VWS V14.01,2013-05-10 14:18:00,
2013-05-10 10:23:00,64.0,55.9,29.99,WSW,254,0.0,0.0,75,0.00,,CLR,0.00,178.00,VWS V14.01,2013-05-10 14:23:00,
2013-05-10 10:28:00,64.2,56.5,29.99,WSW,254,0.0,0.0,76,0.00,,CLR,0.00,208.00,VWS V14.01,2013-05-10 14:28:00,
2013-05-10 10:33:00,64.3,56.2,29.99,WSW,254,0.0,0.0,75,0.00,,CLR,0.00,192.00,VWS V14.01,2013-05-10 14:33:00,
2013-05-10 10:38:00,64.6,56.5,29.99,WSW,254,0.0,0.0,75,0.00,,CLR,0.00,213.00,VWS V14.01,2013-05-10 14:38:00,
2013-05-10 10:44:00,64.6,56.1,29.99,WSW,254,0.0,0.0,74,0.00,,CLR,0.00,164.00,VWS V14.01,2013-05-10 14:44:00,
2013-05-10 10:49:00,64.6,56.1,29.98,WSW,254,0.0,0.0,74,0.00,,CLR,0.00,155.00,VWS V14.01,2013-05-10 14:49:00,
2013-05-10 10:54:00,64.8,56.3,29.98,WSW,254,0.0,0.0,74,0.00,,CLR,0.00,158.00,VWS V14.01,2013-05-10 14:54:00,
2013-05-10 10:59:00,64.8,56.7,29.98,WSW,254,0.0,0.0,75,0.00,,CLR,0.00,164.00,VWS V14.01,2013-05-10 14:59:00,
2013-05-10 11:04:00,64.8,56.0,29.98,WSW,254,0.0,0.0,73,0.00,,CLR,0.00,162.00,VWS V14.01,2013-05-10 15:04:00,
2013-05-10 11:09:00,64.6,55.8,29.98,WSW,254,0.0,0.0,73,0.00,,CLR,0.00,157.00,VWS V14.01,2013-05-10 15:09:00,
2013-05-10 11:14:00,65.0,56.9,29.98,WSW,254,0.0,0.0,75,0.00,,CLR,0.00,167.00,VWS V14.01,2013-05-10 15:14:00,
2013-05-10 11:19:00,65.3,57.5,29.98,East,99,0.0,0.0,76,0.00,,CLR,0.00,178.00,VWS V14.01,2013-05-10 15:19:00,
2013-05-10 11:24:00,65.6,57.5,29.98,ESE,117,0.0,2.0,75,0.00,,CLR,0.00,185.00,VWS V14.01,2013-05-10 15:24:00,
2013-05-10 11:29:00,65.9,58.5,29.98,ESE,117,0.0,2.0,77,0.00,,CLR,0.00,194.00,VWS V14.01,2013-05-10 15:29:00,
2013-05-10 11:34:00,65.9,58.1,29.98,North,10,0.0,1.0,76,0.00,,CLR,0.00,230.00,VWS V14.01,2013-05-10 15:34:00,
2013-05-10 11:39:00,65.8,58.0,29.98,North,359,0.0,3.0,76,0.00,,CLR,0.00,243.00,VWS V14.01,2013-05-10 15:39:00,
2013-05-10 11:44:00,65.8,58.0,29.98,North,359,0.0,0.0,76,0.00,,CLR,0.00,245.00,VWS V14.01,2013-05-10 15:44:00,
2013-05-10 11:50:00,65.8,58.0,29.97,North,359,0.0,1.0,76,0.00,,CLR,0.00,246.00,VWS V14.01,2013-05-10 15:50:00,
2013-05-10 11:55:00,65.8,57.3,29.97,North,359,0.0,0.0,74,0.00,,CLR,0.00,273.00,VWS V14.01,2013-05-10 15:55:00,
2013-05-10 12:00:00,65.9,57.0,29.97,SE,134,0.0,2.0,73,0.00,,CLR,0.00,389.00,VWS V14.01,2013-05-10 16:00:00,
2013-05-10 12:05:00,66.6,59.2,29.96,SE,133,0.0,1.0,77,0.00,,CLR,0.00,389.00,VWS V14.01,2013-05-10 16:05:00,
2013-05-10 12:10:00,67.4,58.5,29.96,ESE,116,0.0,2.0,73,0.00,,CLR,0.00,897.00,VWS V14.01,2013-05-10 16:10:00,
2013-05-10 12:15:00,68.1,59.1,29.96,ESE,116,0.0,1.0,73,0.00,,CLR,0.00,924.00,VWS V14.01,2013-05-10 16:15:00,
2013-05-10 12:20:00,69.3,59.1,29.95,ESE,113,1.0,1.0,70,0.00,,CLR,0.00,904.00,VWS V14.01,2013-05-10 16:20:00,
2013-05-10 12:25:00,69.9,58.9,29.95,ESE,113,0.0,0.0,68,0.00,,CLR,0.00,908.00,VWS V14.01,2013-05-10 16:25:00,
2013-05-10 12:30:00,71.0,60.7,29.95,ESE,110,0.0,1.0,70,0.00,,CLR,0.00,913.00,VWS V14.01,2013-05-10 16:30:00,
2013-05-10 12:35:00,71.7,60.6,29.94,North,350,0.0,2.0,68,0.00,,CLR,0.00,933.00,VWS V14.01,2013-05-10 16:35:00,
2013-05-10 12:40:00,72.2,59.8,29.94,NE,35,0.0,2.0,65,0.00,,CLR,0.00,934.00,VWS V14.01,2013-05-10 16:40:00,
2013-05-10 12:45:00,72.7,60.3,29.94,ENE,64,0.0,5.0,65,0.00,,CLR,0.00,933.00,VWS V14.01,2013-05-10 16:45:00,
2013-05-10 12:50:00,73.6,62.0,29.93,ENE,64,0.0,5.0,67,0.00,,CLR,0.00,918.00,VWS V14.01,2013-05-10 16:50:00,
2013-05-10 12:55:00,74.1,60.3,29.93,East,100,1.0,2.0,62,0.00,,CLR,0.00,809.00,VWS V14.01,2013-05-10 16:55:00,
2013-05-10 13:01:00,75.0,62.0,29.93,East,100,0.0,2.0,64,0.00,,CLR,0.00,901.00,VWS V14.01,2013-05-10 17:01:00,
2013-05-10 13:06:00,75.7,62.2,29.92,SE,126,0.0,2.0,63,0.00,,CLR,0.00,892.00,VWS V14.01,2013-05-10 17:06:00,
2013-05-10 13:11:00,76.4,61.5,29.92,ESE,121,0.0,2.0,60,0.00,,CLR,0.00,892.00,VWS V14.01,2013-05-10 17:11:00,
2013-05-10 13:16:00,77.1,58.7,29.92,East,90,0.0,0.0,53,0.00,,CLR,0.00,892.00,VWS V14.01,2013-05-10 17:16:00,
2013-05-10 13:21:00,77.8,59.8,29.91,West,271,1.0,2.0,54,0.00,,CLR,0.00,813.00,VWS V14.01,2013-05-10 17:21:00,
2013-05-10 13:26:00,78.6,60.6,29.91,SW,229,0.0,1.0,54,0.00,,CLR,0.00,915.00,VWS V14.01,2013-05-10 17:26:00,
2013-05-10 13:31:00,79.1,54.1,29.91,WSW,246,0.0,5.0,42,0.00,,CLR,0.00,934.00,VWS V14.01,2013-05-10 17:31:00,
2013-05-10 13:36:00,79.5,55.1,29.90,NW,313,1.0,3.0,43,0.00,,CLR,0.00,934.00,VWS V14.01,2013-05-10 17:36:00,
2013-05-10 13:41:00,79.9,57.3,29.90,WSW,253,0.0,3.0,46,0.00,,CLR,0.00,934.00,VWS V14.01,2013-05-10 17:41:00,
2013-05-10 13:46:00,80.6,56.1,29.90,NW,313,0.0,2.0,43,0.00,,CLR,0.00,1068.00,VWS V14.01,2013-05-10 17:46:00,
2013-05-10 13:51:00,81.0,58.3,29.89,North,1,0.0,5.0,46,0.00,,CLR,0.00,1057.00,VWS V14.01,2013-05-10 17:51:00,
2013-05-10 13:56:00,81.2,56.6,29.89,North,352,1.0,3.0,43,0.00,,CLR,0.00,1096.00,VWS V14.01,2013-05-10 17:56:00,
2013-05-10 14:01:00,81.4,54.1,29.88,NNW,336,0.0,3.0,39,0.00,,CLR,0.00,1096.00,VWS V14.01,2013-05-10 18:01:00,
2013-05-10 14:07:00,81.8,54.5,29.88,NW,316,3.0,5.0,39,0.00,,CLR,0.00,1096.00,VWS V14.01,2013-05-10 18:07:00,
2013-05-10 14:12:00,82.4,60.8,29.88,West,263,3.0,6.0,48,0.00,,CLR,0.00,968.00,VWS V14.01,2013-05-10 18:12:00,
2013-05-10 14:17:00,83.0,56.2,29.86,WSW,247,4.0,7.0,40,0.00,,CLR,0.00,885.00,VWS V14.01,2013-05-10 18:17:00,
2013-05-10 14:22:00,83.1,56.3,29.86,West,278,5.0,7.0,40,0.00,,CLR,0.00,1084.00,VWS V14.01,2013-05-10 18:22:00,
2013-05-10 14:27:00,83.3,57.8,29.86,WSW,253,0.0,4.0,42,0.00,,CLR,0.00,1070.00,VWS V14.01,2013-05-10 18:27:00,
2013-05-10 14:32:00,83.5,56.0,29.86,South,191,2.0,7.0,39,0.00,,CLR,0.00,1038.00,VWS V14.01,2013-05-10 18:32:00,
2013-05-10 14:37:00,83.1,55.6,29.86,SW,226,4.0,11.0,39,0.00,,CLR,0.00,911.00,VWS V14.01,2013-05-10 18:37:00,
2013-05-10 14:42:00,83.3,57.2,29.86,SSW,192,3.0,11.0,41,0.00,,CLR,0.00,347.00,VWS V14.01,2013-05-10 18:42:00,
2013-05-10 14:47:00,81.4,56.8,29.86,WSW,244,4.0,10.0,43,0.00,,CLR,0.00,211.00,VWS V14.01,2013-05-10 18:47:00,
2013-05-10 14:52:00,79.5,55.7,29.86,SSW,199,3.0,3.0,44,0.00,,CLR,0.00,179.00,VWS V14.01,2013-05-10 18:52:00,
2013-05-10 14:58:00,78.2,54.5,29.86,SW,223,0.0,6.0,44,0.00,,CLR,0.00,197.00,VWS V14.01,2013-05-10 18:58:00,
2013-05-10 15:03:00,77.6,54.0,29.86,WSW,237,0.0,2.0,44,0.00,,CLR,0.00,197.00,VWS V14.01,2013-05-10 19:03:00,
2013-05-10 15:08:00,77.8,58.2,29.86,West,270,4.0,7.0,51,0.00,,CLR,0.00,197.00,VWS V14.01,2013-05-10 19:08:00,
2013-05-10 15:13:00,78.2,60.7,29.86,SSW,213,0.0,1.0,55,0.00,,CLR,0.00,197.00,VWS V14.01,2013-05-10 19:13:00,
2013-05-10 15:18:00,79.1,61.0,29.85,SSW,205,0.0,3.0,54,0.00,,CLR,0.00,542.00,VWS V14.01,2013-05-10 19:18:00,
2013-05-10 15:23:00,79.5,61.4,29.85,SW,217,7.0,7.0,54,0.00,,CLR,0.00,542.00,VWS V14.01,2013-05-10 19:23:00,
2013-05-10 15:28:00,78.9,58.1,29.85,WSW,237,0.0,7.0,49,0.00,,CLR,0.00,213.00,VWS V14.01,2013-05-10 19:28:00,
2013-05-10 15:34:00,78.8,59.7,29.85,WSW,246,0.0,2.0,52,0.00,,CLR,0.00,213.00,VWS V14.01,2013-05-10 19:34:00,
2013-05-10 15:39:00,77.3,59.4,29.85,WNW,291,6.0,19.0,54,0.00,,CLR,0.00,28.00,VWS V14.01,2013-05-10 19:39:00,
2013-05-10 15:44:00,72.3,61.2,29.85,West,265,14.0,14.0,68,0.02,,CLR,0.02,25.00,VWS V14.01,2013-05-10 19:44:00,
2013-05-10 15:49:00,69.4,60.8,29.89,SSW,205,1.0,14.0,74,0.06,,CLR,0.06,39.00,VWS V14.01,2013-05-10 19:49:00,
2013-05-10 15:54:00,68.1,61.0,29.89,SSW,210,0.0,3.0,78,0.06,,CLR,0.06,39.00,VWS V14.01,2013-05-10 19:54:00,
2013-05-10 15:59:00,67.4,60.3,29.89,SW,226,1.0,5.0,78,0.06,,CLR,0.06,39.00,VWS V14.01,2013-05-10 19:59:00,
2013-05-10 16:04:00,66.9,59.8,29.88,SW,226,0.0,0.0,78,0.07,,CLR,0.07,39.00,VWS V14.01,2013-05-10 20:04:00,
2013-05-10 16:09:00,66.8,59.7,29.88,SSW,200,0.0,2.0,78,0.07,,CLR,0.07,39.00,VWS V14.01,2013-05-10 20:09:00,
2013-05-10 16:14:00,66.8,59.7,29.88,SSE,160,0.0,2.0,78,0.07,,CLR,0.07,39.00,VWS V14.01,2013-05-10 20:14:00,
2013-05-10 16:20:00,66.6,59.5,29.87,WSW,246,0.0,4.0,78,0.07,,CLR,0.07,39.00,VWS V14.01,2013-05-10 20:20:00,
2013-05-10 16:25:00,66.4,59.3,29.87,SSW,199,0.0,2.0,78,0.07,,CLR,0.07,39.00,VWS V14.01,2013-05-10 20:25:00,
2013-05-10 16:30:00,66.9,59.8,29.87,SSW,210,0.0,2.0,78,0.07,,CLR,0.07,39.00,VWS V14.01,2013-05-10 20:30:00,
2013-05-10 16:35:00,67.3,60.2,29.87,SW,217,0.0,0.0,78,0.07,,CLR,0.07,39.00,VWS V14.01,2013-05-10 20:35:00,
2013-05-10 16:40:00,67.8,60.7,29.87,SW,217,0.0,1.0,78,0.07,,CLR,0.07,39.00,VWS V14.01,2013-05-10 20:40:00,
2013-05-10 16:45:00,68.1,61.0,29.87,SW,217,0.0,0.0,78,0.05,,CLR,0.07,39.00,VWS V14.01,2013-05-10 20:45:00,
2013-05-10 16:51:00,67.9,64.2,29.86,SW,222,3.0,3.0,88,0.05,,CLR,0.07,39.00,VWS V14.01,2013-05-10 20:51:00,
2013-05-10 16:56:00,68.1,64.4,29.86,SW,236,0.0,1.0,88,0.01,,CLR,0.07,297.00,VWS V14.01,2013-05-10 20:56:00,
2013-05-10 17:01:00,68.3,64.6,29.86,East,92,0.0,1.0,88,0.01,,CLR,0.07,230.00,VWS V14.01,2013-05-10 21:01:00,
2013-05-10 17:06:00,68.6,64.6,29.86,East,92,0.0,0.0,87,0.00,,CLR,0.07,232.00,VWS V14.01,2013-05-10 21:06:00,
2013-05-10 17:11:00,68.6,64.6,29.86,ESE,103,0.0,2.0,87,0.00,,CLR,0.07,181.00,VWS V14.01,2013-05-10 21:11:00,
2013-05-10 17:16:00,68.8,64.4,29.85,SE,140,0.0,1.0,86,0.00,,CLR,0.07,127.00,VWS V14.01,2013-05-10 21:16:00,
2013-05-10 17:21:00,68.8,64.4,29.85,SE,140,0.0,1.0,86,0.00,,CLR,0.07,109.00,VWS V14.01,2013-05-10 21:21:00,
2013-05-10 17:26:00,68.8,64.4,29.85,SE,140,0.0,0.0,86,0.00,,CLR,0.07,109.00,VWS V14.01,2013-05-10 21:26:00,
2013-05-10 17:32:00,68.9,64.6,29.85,SE,140,0.0,0.0,86,0.00,,CLR,0.07,91.00,VWS V14.01,2013-05-10 21:32:00,
2013-05-10 17:37:00,68.8,64.1,29.85,SE,140,0.0,0.0,85,0.00,,CLR,0.07,91.00,VWS V14.01,2013-05-10 21:37:00,
2013-05-10 17:42:00,68.8,63.8,29.85,East,97,0.0,0.0,84,0.00,,CLR,0.07,42.00,VWS V14.01,2013-05-10 21:42:00,
2013-05-10 17:47:00,68.4,63.0,29.86,ENE,61,0.0,2.0,83,0.00,,CLR,0.07,18.00,VWS V14.01,2013-05-10 21:47:00,
2013-05-10 17:52:00,68.1,63.4,29.86,NW,309,2.0,6.0,85,0.00,,CLR,0.07,14.00,VWS V14.01,2013-05-10 21:52:00,
2013-05-10 17:57:00,67.4,62.7,29.86,SW,216,2.0,11.0,85,0.03,,CLR,0.10,44.00,VWS V14.01,2013-05-10 21:57:00,
2013-05-10 17:58:00,67.3,62.6,29.86,SW,233,2.0,11.0,85,0.03,,CLR,0.10,44.00,VWS V14.01,2013-05-10 21:58:00,
2013-05-10 18:15:00,65.8,60.5,29.89,SSW,212,2.0,5.0,83,0.03,,CLR,0.10,55.00,VWS V14.01,2013-05-10 22:15:00,
2013-05-10 18:20:00,65.9,61.3,29.88,SSW,212,0.0,5.0,85,0.03,,CLR,0.10,77.00,VWS V14.01,2013-05-10 22:20:00,
2013-05-10 18:25:00,65.9,61.9,29.88,SSW,208,0.0,1.0,87,0.03,,CLR,0.10,99.00,VWS V14.01,2013-05-10 22:25:00,
2013-05-10 18:31:00,65.9,62.2,29.88,SSW,209,0.0,1.0,88,0.03,,CLR,0.10,88.00,VWS V14.01,2013-05-10 22:31:00,
2013-05-10 18:36:00,65.9,62.6,29.89,SSW,209,0.0,0.0,89,0.03,,CLR,0.10,69.00,VWS V14.01,2013-05-10 22:36:00,
2013-05-10 18:41:00,65.8,62.5,29.89,SSW,209,0.0,0.0,89,0.03,,CLR,0.10,67.00,VWS V14.01,2013-05-10 22:41:00,
2013-05-10 18:46:00,65.9,62.6,29.89,SSW,209,0.0,0.0,89,0.03,,CLR,0.10,56.00,VWS V14.01,2013-05-10 22:46:00,
2013-05-10 18:51:00,65.9,62.9,29.89,SSW,209,0.0,0.0,90,0.03,,CLR,0.10,48.00,VWS V14.01,2013-05-10 22:51:00,
2013-05-10 18:56:00,65.6,62.6,29.89,SSW,209,0.0,1.0,90,0.03,,CLR,0.10,48.00,VWS V14.01,2013-05-10 22:56:00,
2013-05-10 19:01:00,65.4,62.7,29.89,SSW,208,0.0,1.0,91,0.03,,CLR,0.10,48.00,VWS V14.01,2013-05-10 23:01:00,
2013-05-10 19:06:00,65.4,62.7,29.89,SSW,209,0.0,0.0,91,0.00,,CLR,0.10,48.00,VWS V14.01,2013-05-10 23:06:00,
2013-05-10 19:11:00,65.4,62.7,29.89,SSW,208,0.0,0.0,91,0.00,,CLR,0.10,46.00,VWS V14.01,2013-05-10 23:11:00,
2013-05-10 19:16:00,65.3,62.6,29.89,SSW,209,0.0,0.0,91,0.00,,CLR,0.10,42.00,VWS V14.01,2013-05-10 23:16:00,
2013-05-10 19:21:00,65.1,62.4,29.89,SSW,208,0.0,0.0,91,0.00,,CLR,0.10,40.00,VWS V14.01,2013-05-10 23:21:00,
2013-05-10 19:27:00,64.8,62.1,29.89,SSW,209,0.0,0.0,91,0.00,,CLR,0.10,26.00,VWS V14.01,2013-05-10 23:27:00,
2013-05-10 19:32:00,64.8,62.4,29.89,SE,131,0.0,1.0,92,0.00,,CLR,0.10,19.00,VWS V14.01,2013-05-10 23:32:00,
2013-05-10 19:37:00,64.6,62.2,29.89,SE,131,0.0,0.0,92,0.00,,CLR,0.10,19.00,VWS V14.01,2013-05-10 23:37:00,
2013-05-10 19:42:00,64.6,62.2,29.89,SE,131,0.0,0.0,92,0.00,,CLR,0.10,14.00,VWS V14.01,2013-05-10 23:42:00,
2013-05-10 19:47:00,64.5,62.1,29.89,SE,137,0.0,1.0,92,0.00,,CLR,0.10,11.00,VWS V14.01,2013-05-10 23:47:00,
2013-05-10 19:52:00,64.2,61.8,29.89,SE,140,0.0,1.0,92,0.00,,CLR,0.10,5.00,VWS V14.01,2013-05-10 23:52:00,
2013-05-10 19:57:00,64.0,61.6,29.89,SW,219,1.0,2.0,92,0.00,,CLR,0.10,0.00,VWS V14.01,2013-05-10 23:57:00,
2013-05-10 20:02:00,63.8,61.4,29.90,SSW,212,0.0,3.0,92,0.00,,CLR,0.10,0.00,VWS V14.01,2013-05-11 00:02:00,
2013-05-10 20:07:00,63.8,61.4,29.90,East,96,0.0,1.0,92,0.00,,CLR,0.10,0.00,VWS V14.01,2013-05-11 00:07:00,
2013-05-10 20:12:00,63.8,61.7,29.90,East,96,0.0,0.0,93,0.01,,CLR,0.11,0.00,VWS V14.01,2013-05-11 00:12:00,
2013-05-10 20:17:00,63.8,61.7,29.91,East,96,0.0,0.0,93,0.02,,CLR,0.12,0.00,VWS V14.01,2013-05-11 00:17:00,
2013-05-10 20:22:00,63.7,61.6,29.91,East,99,0.0,0.0,93,0.03,,CLR,0.13,0.00,VWS V14.01,2013-05-11 00:22:00,
2013-05-10 20:27:00,63.7,61.6,29.91,East,99,0.0,0.0,93,0.04,,CLR,0.14,0.00,VWS V14.01,2013-05-11 00:27:00,
2013-05-10 20:33:00,63.5,61.4,29.91,East,100,0.0,0.0,93,0.05,,CLR,0.15,0.00,VWS V14.01,2013-05-11 00:33:00,
2013-05-10 20:38:00,63.3,61.2,29.91,South,189,0.0,0.0,93,0.06,,CLR,0.16,0.00,VWS V14.01,2013-05-11 00:38:00,
2013-05-10 20:43:00,63.0,61.2,29.91,SSW,213,1.0,2.0,94,0.08,,CLR,0.18,0.00,VWS V14.01,2013-05-11 00:43:00,
2013-05-10 20:48:00,62.9,61.2,29.91,SSW,210,4.0,4.0,94,0.09,,CLR,0.19,0.00,VWS V14.01,2013-05-11 00:48:00,
2013-05-10 20:53:00,62.9,61.5,29.91,SW,233,3.0,5.0,95,0.11,,CLR,0.21,0.00,VWS V14.01,2013-05-11 00:53:00,
2013-05-10 20:58:00,62.7,61.2,29.91,SSW,208,3.0,8.0,95,0.13,,CLR,0.23,0.00,VWS V14.01,2013-05-11 00:58:00,
2013-05-10 21:03:00,62.5,61.0,29.92,SW,217,8.0,8.0,95,0.14,,CLR,0.24,0.00,VWS V14.01,2013-05-11 01:03:00,
2013-05-10 21:08:00,62.4,61.0,29.92,South,182,1.0,10.0,95,0.14,,CLR,0.24,0.00,VWS V14.01,2013-05-11 01:08:00,
2013-05-10 21:13:00,62.4,61.2,29.92,WSW,254,1.0,2.0,96,0.14,,CLR,0.24,0.00,VWS V14.01,2013-05-11 01:13:00,
2013-05-10 21:18:00,62.2,61.0,29.89,SSW,212,0.0,4.0,96,0.14,,CLR,0.24,0.00,VWS V14.01,2013-05-11 01:18:00,
2013-05-10 21:23:00,61.9,60.8,29.89,WSW,253,1.0,5.0,96,0.11,,CLR,0.24,0.00,VWS V14.01,2013-05-11 01:23:00,
2013-05-10 21:28:00,61.6,60.5,29.89,SW,216,3.0,8.0,96,0.11,,CLR,0.24,0.00,VWS V14.01,2013-05-11 01:28:00,
2013-05-10 21:33:00,61.4,60.2,29.88,WNW,291,2.0,2.0,96,0.09,,CLR,0.24,0.00,VWS V14.01,2013-05-11 01:33:00,
2013-05-10 21:38:00,61.3,60.2,29.88,WSW,257,1.0,6.0,96,0.09,,CLR,0.24,0.00,VWS V14.01,2013-05-11 01:38:00,
2013-05-10 21:44:00,61.1,60.0,29.88,SSW,205,1.0,5.0,96,0.07,,CLR,0.24,0.00,VWS V14.01,2013-05-11 01:44:00,
2013-05-10 21:49:00,61.0,59.9,29.88,WSW,257,0.0,6.0,96,0.07,,CLR,0.24,0.00,VWS V14.01,2013-05-11 01:49:00,
2013-05-10 21:54:00,61.0,59.9,29.88,SW,217,1.0,4.0,96,0.04,,CLR,0.24,0.00,VWS V14.01,2013-05-11 01:54:00,
2013-05-10 21:59:00,61.0,59.9,29.88,SSW,210,1.0,4.0,96,0.04,,CLR,0.24,0.00,VWS V14.01,2013-05-11 01:59:00,
2013-05-10 22:04:00,61.0,60.2,29.88,SW,223,1.0,3.0,97,0.00,,CLR,0.24,0.00,VWS V14.01,2013-05-11 02:04:00,
2013-05-10 22:09:00,61.0,60.2,29.88,SW,220,0.0,3.0,97,0.00,,CLR,0.24,0.00,VWS V14.01,2013-05-11 02:09:00,
2013-05-10 22:14:00,61.0,60.2,29.88,SW,232,0.0,1.0,97,0.00,,CLR,0.24,0.00,VWS V14.01,2013-05-11 02:14:00,
2013-05-10 22:19:00,61.0,60.2,29.87,WSW,237,0.0,3.0,97,0.00,,CLR,0.24,0.00,VWS V14.01,2013-05-11 02:19:00,
2013-05-10 22:24:00,61.0,60.2,29.87,SW,217,3.0,3.0,97,0.00,,CLR,0.24,0.00,VWS V14.01,2013-05-11 02:24:00,
2013-05-10 22:30:00,61.0,60.2,29.87,SW,227,0.0,5.0,97,0.00,,CLR,0.24,0.00,VWS V14.01,2013-05-11 02:30:00,
2013-05-10 22:35:00,60.8,60.0,29.86,SSW,202,0.0,2.0,97,0.00,,CLR,0.24,0.00,VWS V14.01,2013-05-11 02:35:00,
2013-05-10 22:40:00,60.8,60.0,29.86,SW,217,2.0,5.0,97,0.00,,CLR,0.24,0.00,VWS V14.01,2013-05-11 02:40:00,
2013-05-10 22:45:00,60.6,59.8,29.86,SW,226,5.0,6.0,97,0.00,,CLR,0.24,0.00,VWS V14.01,2013-05-11 02:45:00,
2013-05-10 22:50:00,60.6,59.8,29.85,WSW,247,2.0,6.0,97,0.00,,CLR,0.24,0.00,VWS V14.01,2013-05-11 02:50:00,
2013-05-10 22:55:00,60.5,59.7,29.85,SW,220,5.0,6.0,97,0.00,,CLR,0.24,0.00,VWS V14.01,2013-05-11 02:55:00,
2013-05-10 23:00:00,60.5,59.7,29.85,WSW,250,0.0,6.0,97,0.00,,CLR,0.24,0.00,VWS V14.01,2013-05-11 03:00:00,
2013-05-10 23:05:00,60.3,59.7,29.85,WSW,250,0.0,0.0,98,0.00,,CLR,0.24,0.00,VWS V14.01,2013-05-11 03:05:00,
2013-05-10 23:10:00,60.3,59.7,29.85,WSW,250,0.0,1.0,98,0.00,,CLR,0.24,0.00,VWS V14.01,2013-05-11 03:10:00,
2013-05-10 23:15:00,60.3,59.7,29.85,SW,216,0.0,3.0,98,0.00,,CLR,0.24,0.00,VWS V14.01,2013-05-11 03:15:00,
2013-05-10 23:20:00,60.3,59.7,29.84,South,189,2.0,5.0,98,0.00,,CLR,0.24,0.00,VWS V14.01,2013-05-11 03:20:00,
2013-05-10 23:25:00,60.3,59.7,29.84,SSW,213,0.0,5.0,98,0.00,,CLR,0.24,0.00,VWS V14.01,2013-05-11 03:25:00,
2013-05-10 23:31:00,60.3,59.7,29.84,SSW,213,0.0,5.0,98,0.00,,CLR,0.24,0.00,VWS V14.01,2013-05-11 03:31:00,
2013-05-10 23:36:00,60.3,59.7,29.84,SSW,213,0.0,0.0,98,0.00,,CLR,0.24,0.00,VWS V14.01,2013-05-11 03:36:00,
2013-05-10 23:41:00,60.2,59.6,29.84,West,267,1.0,3.0,98,0.00,,CLR,0.24,0.00,VWS V14.01,2013-05-11 03:41:00,
2013-05-10 23:46:00,60.2,59.6,29.84,WSW,256,0.0,2.0,98,0.00,,CLR,0.24,0.00,VWS V14.01,2013-05-11 03:46:00,
2013-05-10 23:51:00,60.2,59.6,29.84,West,267,0.0,6.0,98,0.00,,CLR,0.24,0.00,VWS V14.01,2013-05-11 03:51:00,
2013-05-10 23:56:00,60.2,59.6,29.84,WSW,254,2.0,3.0,98,0.00,,CLR,0.24,0.00,VWS V14.01,2013-05-11 03:56:00,